Time;durP1;ratioP1;P1;durP2;ratioP2;P2;SDS_P1;SDS_P2;PMS_P1;PMS_P2;Temp;Humidity;BMP_temperature;BMP_pressure;BME280_temperature;BME280_humidity;BME280_pressure;Samples;Min_cycle;Max_cycle;Signal;HPM_P1;HPM_P2
2022/08/24 00:02:06;;;;;;;56.13;31.45;;;;;;;18.72;100.00;96746.92;1723284;81;21003;-83
2022/08/24 00:04:31;;;;;;;56.98;30.88;;;;;;;18.71;100.00;96737.91;1741072;81;20987;-83
2022/08/24 00:06:57;;;;;;;47.50;28.95;;;;;;;18.71;100.00;96739.22;1734362;82;20990;-83
2022/08/24 00:09:23;;;;;;;59.27;33.45;;;;;;;18.67;100.00;96740.70;1739001;81;20994;-84
2022/08/24 00:11:49;;;;;;;63.65;34.90;;;;;;;18.62;100.00;96741.35;1735308;81;20967;-84
2022/08/24 00:14:15;;;;;;;62.27;31.97;;;;;;;18.63;100.00;96742.16;1705743;82;21006;-84
2022/08/24 00:16:41;;;;;;;62.10;30.68;;;;;;;18.64;100.00;96743.79;1688144;82;21461;-84
2022/08/24 00:19:06;;;;;;;63.85;31.50;;;;;;;18.65;100.00;96744.08;1700954;83;21051;-84
2022/08/24 00:21:32;;;;;;;54.08;30.68;;;;;;;18.64;100.00;96734.06;1721082;82;21106;-84
2022/08/24 00:23:58;;;;;;;53.50;31.27;;;;;;;18.67;100.00;96736.75;1701598;84;21064;-84
2022/08/24 00:26:24;;;;;;;51.83;27.87;;;;;;;18.67;100.00;96736.24;1753299;80;20949;-84
2022/08/24 00:28:50;;;;;;;52.93;29.20;;;;;;;18.64;100.00;96737.21;1683508;83;20988;-83
2022/08/24 00:31:16;;;;;;;49.42;26.35;;;;;;;18.64;100.00;96737.21;1690136;83;20967;-84
2022/08/24 00:33:42;;;;;;;50.78;27.02;;;;;;;18.63;100.00;96736.41;1704221;82;21388;-83
2022/08/24 00:36:08;;;;;;;52.58;28.07;;;;;;;18.65;100.00;96733.55;1720005;82;20991;-83
2022/08/24 00:38:35;;;;;;;59.45;31.05;;;;;;;18.66;100.00;96739.91;1697855;84;21417;-84
2022/08/24 00:41:02;;;;;;;61.13;32.70;;;;;;;18.66;100.00;96740.41;1719524;82;21016;-84
2022/08/24 00:43:28;;;;;;;59.58;31.52;;;;;;;18.66;100.00;96747.00;1699905;84;21279;-84
2022/08/24 00:46:37;;;;;;;60.75;33.73;;;;;;;18.64;100.00;96752.48;1678117;84;21403;-84
2022/08/24 00:49:08;;;;;;;65.83;36.33;;;;;;;18.63;100.00;96745.62;1692965;84;21034;-83
2022/08/24 00:51:38;;;;;;;58.80;31.33;;;;;;;18.62;100.00;96748.45;1672212;84;21099;-84
2022/08/24 00:54:08;;;;;;;64.90;34.50;;;;;;;18.63;100.00;96750.88;1707814;82;21005;-84
2022/08/24 00:56:42;;;;;;;58.68;32.88;;;;;;;18.63;100.00;96752.20;1701334;83;21354;-84
2022/08/24 00:59:13;;;;;;;61.10;33.70;;;;;;;18.64;100.00;96753.80;1667908;84;20944;-84
2022/08/24 01:01:38;;;;;;;67.32;34.90;;;;;;;18.65;100.00;96754.60;1690680;83;21020;-84
2022/08/24 01:04:05;;;;;;;59.40;34.80;;;;;;;18.65;100.00;96754.60;1696584;83;21428;-83
2022/08/24 01:06:32;;;;;;;63.00;33.53;;;;;;;18.66;100.00;96758.84;1691584;83;20995;-83
2022/08/24 01:08:59;;;;;;;59.40;34.20;;;;;;;18.65;100.00;96753.29;1688075;83;21060;-83
2022/08/24 01:11:28;;;;;;;60.48;34.18;;;;;;;18.65;100.00;96746.70;1677302;83;21386;-83
2022/08/24 01:13:53;;;;;;;58.45;33.48;;;;;;;18.65;100.00;96753.29;1700906;83;21102;-83
2022/08/24 01:18:48;;;;;;;60.05;33.78;;;;;;;18.64;100.00;96752.48;1718989;81;21067;-83
2022/08/24 01:18:49;;;;;;;57.60;32.95;;;;;;;18.65;100.00;96759.36;1726976;83;20966;-83
2022/08/24 01:21:25;;;;;;;55.30;30.60;;;;;;;18.63;100.00;96760.58;1722338;81;21015;-83
2022/08/24 01:24:00;;;;;;;53.28;30.72;;;;;;;18.62;100.00;96760.29;1729599;81;21004;-83
2022/08/24 01:26:37;;;;;;;59.03;33.65;;;;;;;18.62;100.00;96759.77;1731178;81;21018;-83
2022/08/24 01:29:07;;;;;;;49.85;30.85;;;;;;;18.63;100.00;96759.27;1728778;81;20976;-83
2022/08/24 01:31:33;;;;;;;53.45;31.12;;;;;;;18.61;100.00;96752.91;1689352;83;21397;-83
2022/08/24 01:33:59;;;;;;;55.55;33.02;;;;;;;18.62;100.00;96754.51;1733233;83;21011;-83
2022/08/24 01:36:44;;;;;;;56.18;34.80;;;;;;;18.64;100.00;96755.63;1711227;81;20987;-83
2022/08/24 01:39:21;;;;;;;60.55;34.10;;;;;;;18.63;100.00;96756.63;1723181;83;20944;-83
2022/08/24 01:41:48;;;;;;;59.77;33.10;;;;;;;18.63;100.00;96755.31;1725232;82;21410;-83
2022/08/24 01:44:14;;;;;;;57.65;34.18;;;;;;;18.65;100.00;96755.92;1727430;83;21378;-83
2022/08/24 01:46:46;;;;;;;57.78;32.17;;;;;;;18.65;100.00;96758.55;1725038;81;21011;-83
2022/08/24 01:49:12;;;;;;;47.98;27.62;;;;;;;18.65;100.00;96761.98;1730072;81;21015;-83
2022/08/24 01:51:38;;;;;;;49.73;29.48;;;;;;;18.64;100.00;96768.28;1723674;83;21035;-83
2022/08/24 01:54:04;;;;;;;50.73;29.05;;;;;;;18.63;100.00;96765.36;1704139;83;20999;-83
2022/08/24 01:56:31;;;;;;;47.95;26.90;;;;;;;18.64;100.00;96766.16;1735396;81;20984;-83
2022/08/24 01:58:57;;;;;;;51.23;29.42;;;;;;;18.64;100.00;96770.11;1707534;82;20993;-83
2022/08/24 02:01:22;;;;;;;55.03;32.13;;;;;;;18.63;100.00;96765.84;1720213;81;20994;-83
2022/08/24 02:03:48;;;;;;;59.10;33.83;;;;;;;18.62;100.00;96766.36;1718690;82;20930;-83
2022/08/24 02:06:17;;;;;;;54.77;30.92;;;;;;;18.59;100.00;96770.75;1699252;82;21494;-83
2022/08/24 02:08:42;;;;;;;50.48;30.65;;;;;;;18.59;100.00;96771.55;1702206;82;21032;-83
2022/08/24 02:11:08;;;;;;;56.58;30.77;;;;;;;18.61;100.00;96780.55;1719628;82;20964;-83
2022/08/24 02:13:38;;;;;;;55.58;31.52;;;;;;;18.57;100.00;96764.40;1730264;81;20936;-83
2022/08/24 02:16:05;;;;;;;51.58;29.63;;;;;;;18.61;100.00;96766.06;1730494;81;21410;-83
2022/08/24 02:18:33;;;;;;;50.12;28.70;;;;;;;18.62;100.00;96774.25;1717867;82;21027;-83
2022/08/24 02:20:59;;;;;;;49.60;27.70;;;;;;;18.63;100.00;96777.20;1701558;83;21039;-83
2022/08/24 02:23:27;;;;;;;44.67;27.05;;;;;;;18.64;100.00;96779.32;1692517;82;21140;-83
2022/08/24 02:25:54;;;;;;;47.98;27.58;;;;;;;18.63;100.00;96777.69;1729117;81;20966;-84
2022/08/24 02:28:20;;;;;;;42.60;26.00;;;;;;;18.63;100.00;96790.84;1693947;82;21060;-83
2022/08/24 02:30:46;;;;;;;42.60;23.65;;;;;;;18.62;100.00;96783.97;1714506;83;21058;-83
2022/08/24 02:33:11;;;;;;;41.25;25.35;;;;;;;18.59;100.00;96783.39;1725323;81;20967;-83
2022/08/24 02:35:37;;;;;;;41.35;24.52;;;;;;;18.58;100.00;96777.84;1710972;82;21371;-83
2022/08/24 02:38:03;;;;;;;42.90;25.32;;;;;;;18.57;100.00;96773.61;1690294;82;21521;-83
2022/08/24 02:40:30;;;;;;;44.98;27.32;;;;;;;18.57;100.00;96776.23;1725722;81;21011;-83
2022/08/24 02:42:55;;;;;;;55.28;31.65;;;;;;;18.57;100.00;96770.98;1732787;82;21007;-83
2022/08/24 02:45:21;;;;;;;53.70;30.15;;;;;;;18.58;100.00;96785.73;1736741;81;21003;-84
2022/08/24 02:47:47;;;;;;;53.63;30.50;;;;;;;18.58;100.00;96792.83;1706193;82;20942;-83
2022/08/24 02:50:15;;;;;;;52.62;30.23;;;;;;;18.58;100.00;96800.22;1731813;82;20928;-83
2022/08/24 02:52:41;;;;;;;50.30;30.02;;;;;;;18.57;100.00;96794.66;1723330;82;21394;-83
2022/08/24 02:55:10;;;;;;;48.55;28.42;;;;;;;18.55;100.00;96791.97;1725580;81;20959;-83
2022/08/24 02:57:36;;;;;;;49.60;30.35;;;;;;;18.57;100.00;96797.81;1710097;82;21013;-83
2022/08/24 03:00:06;;;;;;;50.52;30.43;;;;;;;18.57;100.00;96793.34;1717513;81;21006;-83
2022/08/24 03:02:32;;;;;;;48.80;28.73;;;;;;;18.57;100.00;96788.09;1719140;82;21008;-83
2022/08/24 03:04:58;;;;;;;51.00;30.65;;;;;;;18.58;100.00;96788.89;1708424;82;21035;-83
2022/08/24 03:07:23;;;;;;;51.88;29.57;;;;;;;18.56;100.00;96783.05;1733278;81;20912;-83
2022/08/24 03:09:49;;;;;;;48.23;29.80;;;;;;;18.55;100.00;96786.70;1735808;81;20968;-83
2022/08/24 03:12:16;;;;;;;52.45;30.35;;;;;;;18.54;100.00;96793.77;1730649;81;21466;-83
2022/08/24 03:14:42;;;;;;;51.83;31.20;;;;;;;18.55;100.00;96790.14;1732328;81;20979;-83
2022/08/24 03:17:08;;;;;;;53.23;29.65;;;;;;;18.56;100.00;96783.84;1738898;81;21501;-83
2022/08/24 03:19:34;;;;;;;53.10;30.35;;;;;;;18.56;100.00;96783.84;1709665;82;21020;-83
2022/08/24 03:22:00;;;;;;;48.52;28.50;;;;;;;18.57;100.00;96782.82;1713358;82;20937;-83
2022/08/24 03:24:26;;;;;;;45.80;28.25;;;;;;;18.57;100.00;96786.77;1705762;82;21044;-83
2022/08/24 03:26:52;;;;;;;52.75;28.80;;;;;;;18.56;100.00;96786.48;1718213;82;20996;-83
2022/08/24 03:29:18;;;;;;;54.55;30.77;;;;;;;18.55;100.00;96783.56;1732520;81;21341;-83
2022/08/24 03:31:43;;;;;;;47.65;28.57;;;;;;;18.55;100.00;96795.91;1735111;81;21009;-83
2022/08/24 03:34:12;;;;;;;49.35;30.30;;;;;;;18.54;100.00;96794.28;1681123;84;20964;-83
2022/08/24 03:36:37;;;;;;;48.87;28.02;;;;;;;18.54;100.00;96797.71;1722261;81;21437;-83
2022/08/24 03:39:03;;;;;;;46.60;28.02;;;;;;;18.55;100.00;96798.55;1726848;81;21102;-83
2022/08/24 03:41:29;;;;;;;55.35;31.95;;;;;;;18.54;100.00;96806.92;1703674;83;21378;-83
2022/08/24 03:43:55;;;;;;;51.08;30.23;;;;;;;18.53;100.00;96809.78;1737042;82;20999;-83
2022/08/24 03:46:27;;;;;;;49.77;29.35;;;;;;;18.51;100.00;96807.88;1728643;81;21022;-83
2022/08/24 03:48:56;;;;;;;52.10;29.95;;;;;;;18.49;100.00;96806.80;1724286;81;21003;-83
2022/08/24 03:51:25;;;;;;;50.43;30.95;;;;;;;18.49;100.00;96812.05;1721888;82;20984;-83
2022/08/24 03:53:51;;;;;;;50.45;29.90;;;;;;;18.47;100.00;96810.67;1710074;82;20985;-83
2022/08/24 03:56:17;;;;;;;53.10;30.43;;;;;;;18.46;100.00;96813.02;1710132;81;20959;-84
2022/08/24 03:58:43;;;;;;;55.48;31.27;;;;;;;18.44;100.00;96806.66;1693765;82;21041;-83
2022/08/24 04:01:09;;;;;;;55.23;30.57;;;;;;;18.45;100.00;96808.27;1712534;82;21009;-83
2022/08/24 04:03:42;;;;;;;57.73;30.65;;;;;;;18.45;100.00;96801.69;1715783;81;21038;-83
2022/08/24 04:06:08;;;;;;;45.85;27.70;;;;;;;18.46;100.00;96799.86;1701050;82;21092;-83
2022/08/24 04:08:33;;;;;;;53.87;29.52;;;;;;;18.45;100.00;96800.37;1712159;82;21042;-83
2022/08/24 04:11:00;;;;;;;55.83;33.08;;;;;;;18.42;100.00;96790.30;1729549;81;21007;-83
2022/08/24 04:13:30;;;;;;;51.30;31.33;;;;;;;18.42;100.00;96790.30;1729586;81;21066;-82
2022/08/24 04:15:54;;;;;;;55.33;32.08;;;;;;;18.47;100.00;96787.80;1717952;83;21028;-83
2022/08/24 04:18:20;;;;;;;53.28;30.80;;;;;;;18.48;100.00;96792.55;1705817;82;21031;-83
2022/08/24 04:20:47;;;;;;;50.78;30.45;;;;;;;18.49;100.00;96797.58;1720156;83;21827;-83
2022/08/24 04:23:14;;;;;;;53.23;31.12;;;;;;;18.49;100.00;96800.73;1722668;82;20992;-82
2022/08/24 04:25:45;;;;;;;53.80;31.07;;;;;;;18.48;100.00;96801.23;1723177;82;20988;-83
2022/08/24 04:28:12;;;;;;;52.93;30.12;;;;;;;18.47;100.00;96798.32;1712289;82;20959;-84
2022/08/24 04:30:40;;;;;;;53.28;30.05;;;;;;;18.48;100.00;96805.70;1694515;83;20933;-83
2022/08/24 04:33:07;;;;;;;54.55;32.03;;;;;;;18.45;100.00;96803.00;1711917;82;21047;-83
2022/08/24 04:35:39;;;;;;;53.55;29.92;;;;;;;18.46;100.00;96807.23;1711430;83;21020;-84
2022/08/24 04:38:05;;;;;;;;;;;;;;;18.44;100.00;96804.03;1724217;82;21114;-83
2022/08/24 04:40:31;;;;;;;49.93;27.35;;;;;;;18.44;100.00;96804.03;1713762;82;20148;-83
2022/08/24 04:42:57;;;;;;;51.42;29.30;;;;;;;18.43;100.00;96798.98;1717499;83;20975;-83
2022/08/24 04:45:25;;;;;;;57.20;29.90;;;;;;;18.42;100.00;96801.33;1716226;82;21020;-82
2022/08/24 04:47:51;;;;;;;53.00;30.10;;;;;;;18.41;100.00;96801.05;1704512;83;21088;-83
2022/08/24 04:50:17;;;;;;;52.90;30.37;;;;;;;18.42;100.00;96800.81;1723510;82;21000;-83
2022/08/24 04:52:43;;;;;;;57.33;32.70;;;;;;;18.42;100.00;96804.77;1714509;83;20916;-84
2022/08/24 04:55:09;;;;;;;54.20;30.92;;;;;;;18.44;100.00;96804.03;1722128;83;20987;-83
2022/08/24 04:57:35;;;;;;;55.43;31.10;;;;;;;18.45;100.00;96802.20;1724446;82;21070;-83
2022/08/24 05:00:02;;;;;;;62.13;33.73;;;;;;;18.45;100.00;96801.69;1710609;83;20944;-83
2022/08/24 05:02:28;;;;;;;50.83;29.57;;;;;;;18.46;100.00;96805.13;1715307;82;21020;-83
2022/08/24 05:04:56;;;;;;;50.95;30.08;;;;;;;18.45;100.00;96802.20;1717316;81;21027;-84
2022/08/24 05:07:22;;;;;;;53.20;29.87;;;;;;;18.44;100.00;96798.77;1719671;83;21070;-83
2022/08/24 05:09:48;;;;;;;52.45;30.68;;;;;;;18.45;100.00;96796.42;1701007;81;21325;-83
2022/08/24 05:12:14;;;;;;;49.75;30.00;;;;;;;18.48;100.00;96799.13;1718412;83;20967;-83
2022/08/24 05:14:40;;;;;;;55.30;31.02;;;;;;;18.48;100.00;96798.61;1682144;83;21000;-83
2022/08/24 05:17:06;;;;;;;56.20;31.27;;;;;;;18.46;100.00;96799.86;1682497;83;21577;-82
2022/08/24 05:19:32;;;;;;;49.58;29.12;;;;;;;18.45;100.00;96800.37;1707234;82;20951;-83
2022/08/24 05:21:59;;;;;;;53.25;30.82;;;;;;;18.45;100.00;96800.37;1704452;84;21001;-83
2022/08/24 05:24:25;;;;;;;49.80;29.75;;;;;;;18.47;100.00;96802.27;1724714;83;21084;-83
2022/08/24 05:26:51;;;;;;;48.40;28.47;;;;;;;18.51;100.00;96798.67;1720890;83;21020;-83
2022/08/24 05:29:18;;;;;;;51.00;29.77;;;;;;;18.53;100.00;96801.88;1719347;83;21330;-83
2022/08/24 05:31:44;;;;;;;51.30;30.45;;;;;;;18.55;100.00;96798.55;1714737;82;20967;-83
2022/08/24 05:34:10;;;;;;;54.42;31.87;;;;;;;18.56;100.00;96799.64;1723812;82;21369;-83
2022/08/24 05:36:37;;;;;;;50.85;29.80;;;;;;;18.58;100.00;96793.64;1721937;83;20976;-83
2022/08/24 05:39:06;;;;;;;47.85;29.25;;;;;;;18.62;100.00;96787.92;1717666;82;20959;-83
2022/08/24 05:41:33;;;;;;;54.50;30.68;;;;;;;18.63;100.00;96788.21;1706986;83;20995;-83
2022/08/24 05:43:59;;;;;;;47.33;29.40;;;;;;;18.63;100.00;96786.41;1716300;83;21036;-83
2022/08/24 05:46:26;;;;;;;48.20;31.57;;;;;;;18.66;100.00;96781.21;1724268;83;21011;-83
2022/08/24 05:48:52;;;;;;;49.27;30.15;;;;;;;18.68;100.00;96779.95;1720144;83;20971;-83
2022/08/24 05:51:17;;;;;;;48.40;28.27;;;;;;;18.70;100.00;96787.11;1723825;82;21334;-83
2022/08/24 05:53:43;;;;;;;44.40;26.55;;;;;;;18.70;100.00;96785.80;1725898;82;20962;-84
2022/08/24 05:56:12;;;;;;;43.28;26.02;;;;;;;18.72;100.00;96787.72;1716013;83;21362;-84
2022/08/24 05:58:39;;;;;;;46.45;29.20;;;;;;;18.76;100.00;96793.34;1716716;83;21031;-83
2022/08/24 06:01:09;;;;;;;52.70;30.08;;;;;;;18.78;100.00;96791.28;1711291;82;21008;-83
2022/08/24 06:03:36;;;;;;;47.90;27.05;;;;;;;18.80;100.00;96790.54;1710195;83;21362;-83
2022/08/24 06:06:03;;;;;;;41.85;25.97;;;;;;;18.82;100.00;96793.23;1725626;83;21003;-83
2022/08/24 06:08:29;;;;;;;43.50;26.52;;;;;;;18.86;100.00;96798.34;1710335;82;21027;-82
2022/08/24 06:10:55;;;;;;;44.40;26.57;;;;;;;18.88;100.00;96801.58;1725126;82;20971;-83
2022/08/24 06:13:21;;;;;;;45.38;25.92;;;;;;;18.88;100.00;96806.84;1712957;82;20943;-83
2022/08/24 06:15:47;;;;;;;44.35;27.45;;;;;;;18.92;100.00;96812.97;1723674;82;20990;-83
2022/08/24 06:18:14;;;;;;;42.98;27.50;;;;;;;18.93;100.00;96815.37;1718647;81;21361;-83
2022/08/24 06:20:41;;;;;;;43.83;26.37;;;;;;;18.90;100.00;96797.41;1731939;82;21003;-83
2022/08/24 06:23:08;;;;;;;43.35;26.57;;;;;;;18.92;100.00;96808.51;1717556;82;21016;-83
2022/08/24 06:28:24;;;;;;;46.30;27.95;;;;;;;18.96;100.00;96816.24;1699586;82;20983;-83
2022/08/24 06:30:50;;;;;;;41.58;26.20;;;;;;;18.97;100.00;96821.80;1712645;83;21022;-84
2022/08/24 06:33:15;;;;;;;43.83;27.45;;;;;;;18.95;100.00;96826.48;1718476;82;21066;-83
2022/08/24 06:35:41;;;;;;;40.60;27.22;;;;;;;18.99;100.00;96830.27;1719604;82;21059;-84
2022/08/24 06:38:07;;;;;;;45.55;28.05;;;;;;;19.03;100.00;96829.30;1704808;82;21489;-84
2022/08/24 06:40:32;;;;;;;46.70;28.12;;;;;;;19.05;100.00;96825.96;1723168;81;20971;-84
2022/08/24 06:43:02;;;;;;;46.18;26.52;;;;;;;19.05;100.00;96829.40;1715914;82;21000;-84
2022/08/24 06:45:29;;;;;;;43.75;26.82;;;;;;;19.06;100.00;96820.98;1710126;82;20960;-84
2022/08/24 06:47:55;;;;;;;43.50;29.63;;;;;;;19.08;100.00;96830.26;1714681;83;21448;-84
2022/08/24 06:50:20;;;;;;;48.10;28.67;;;;;;;19.11;100.00;96827.69;1704907;82;21000;-84
2022/08/24 06:52:46;;;;;;;48.75;28.15;;;;;;;19.12;100.00;96828.78;1725958;82;21334;-83
2022/08/24 06:55:12;;;;;;;48.08;27.10;;;;;;;19.14;100.00;96830.67;1714093;83;21048;-83
2022/08/24 06:57:38;;;;;;;46.28;27.13;;;;;;;19.12;100.00;96835.88;1714736;83;20963;-84
2022/08/24 07:00:05;;;;;;;46.98;26.17;;;;;;;19.08;100.00;96835.53;1718605;83;21039;-84
2022/08/24 07:02:31;;;;;;;45.15;26.87;;;;;;;19.09;100.00;96838.45;1719091;83;21058;-84
2022/08/24 07:04:56;;;;;;;45.73;25.85;;;;;;;19.09;100.00;96839.77;1715525;82;20987;-84
2022/08/24 07:07:23;;;;;;;41.65;24.80;;;;;;;19.11;100.00;96829.80;1723723;82;21000;-84
2022/08/24 07:09:48;;;;;;;47.03;26.40;;;;;;;19.12;100.00;96831.41;1717723;82;21357;-83
2022/08/24 07:12:14;;;;;;;57.65;29.67;;;;;;;19.12;100.00;96823.51;1725151;82;20986;-84
2022/08/24 07:14:40;;;;;;;59.18;33.15;;;;;;;19.14;100.00;96822.77;1725236;82;20987;-84
2022/08/24 07:17:06;;;;;;;57.35;31.23;;;;;;;19.16;100.00;96827.81;1722054;82;21043;-83
2022/08/24 07:19:32;;;;;;;63.55;32.65;;;;;;;19.17;100.00;96834.68;1724433;82;20944;-84
2022/08/24 07:21:58;;;;;;;66.80;35.43;;;;;;;19.11;100.00;96838.22;1714626;82;21426;-83
2022/08/24 07:24:24;;;;;;;67.67;33.33;;;;;;;19.08;100.00;96835.53;1718691;82;21076;-83
2022/08/24 07:26:51;;;;;;;68.25;33.30;;;;;;;19.14;100.00;96844.36;1710991;82;20973;-84
2022/08/24 07:29:18;;;;;;;62.67;31.80;;;;;;;19.15;100.00;96840.17;1689218;83;21228;-84
2022/08/24 07:31:44;;;;;;;58.02;30.82;;;;;;;19.19;100.00;96837.89;1708230;82;21034;-84
2022/08/24 07:34:10;;;;;;;45.63;26.27;;;;;;;19.21;100.00;96835.06;1720358;82;21026;-83
2022/08/24 07:36:39;;;;;;;63.50;32.23;;;;;;;19.22;100.00;96844.05;1703718;84;21002;-83
2022/08/24 07:39:05;;;;;;;57.95;32.17;;;;;;;19.23;100.00;96846.97;1715993;82;21111;-84
2022/08/24 07:41:35;;;;;;;48.23;27.52;;;;;;;19.24;100.00;96851.73;1686059;83;21027;-84
2022/08/24 07:44:01;;;;;;;44.48;25.57;;;;;;;19.26;100.00;96853.62;1709467;83;20998;-85
2022/08/24 07:46:27;;;;;;;50.65;27.55;;;;;;;19.33;100.00;96858.27;1708960;82;21027;-84
2022/08/24 07:48:52;;;;;;;47.33;26.37;;;;;;;19.35;100.00;96860.16;1674289;83;21067;-84
2022/08/24 07:51:19;;;;;;;48.87;28.00;;;;;;;19.37;100.00;96864.72;1717730;81;21448;-83
2022/08/24 07:53:45;;;;;;;45.55;25.85;;;;;;;19.41;100.00;96867.18;1717380;82;20982;-85
2022/08/24 07:56:11;;;;;;;46.08;26.70;;;;;;;19.44;100.00;96870.67;1719385;82;21385;-84
2022/08/24 07:58:37;;;;;;;46.33;26.15;;;;;;;19.44;100.00;96866.72;1708110;82;21034;-84
2022/08/24 08:01:04;;;;;;;46.53;25.60;;;;;;;19.45;100.00;96863.06;1717595;83;20927;-85
2022/08/24 08:03:32;;;;;;;47.03;26.00;;;;;;;19.45;100.00;96865.70;1691154;84;21007;-85
2022/08/24 08:06:00;;;;;;;41.53;24.25;;;;;;;19.45;100.00;96877.55;1707369;84;20955;-83
2022/08/24 08:08:26;;;;;;;42.17;23.95;;;;;;;19.46;100.00;96869.93;1724952;82;20991;-84
2022/08/24 08:10:52;;;;;;;41.80;22.93;;;;;;;19.40;100.00;96875.60;1707194;82;20989;-85
2022/08/24 08:13:18;;;;;;;38.38;22.70;;;;;;;19.36;100.00;96874.94;1726520;81;22397;-83
2022/08/24 08:15:44;;;;;;;42.75;24.57;;;;;;;19.33;100.00;96884.61;1711467;82;21697;-85
2022/08/24 08:18:12;;;;;;;41.40;23.32;;;;;;;19.34;100.00;96887.53;1681515;83;20998;-84
2022/08/24 08:20:38;;;;;;;44.15;25.35;;;;;;;19.33;100.00;96884.61;1708581;84;21078;-84
2022/08/24 08:25:51;;;;;;;42.98;24.57;;;;;;;19.43;100.00;96874.34;1702869;82;20978;-83
2022/08/24 08:28:17;;;;;;;40.12;22.30;;;;;;;19.52;100.00;96876.92;1704677;83;20989;-84
2022/08/24 08:30:44;;;;;;;39.70;22.95;;;;;;;19.62;100.00;96877.73;1706168;83;21005;-86
2022/08/24 08:33:11;;;;;;;37.17;22.80;;;;;;;19.65;100.00;96885.19;1699853;84;21007;-86
2022/08/24 08:35:37;;;;;;;36.77;21.90;;;;;;;19.70;100.00;96889.28;1706196;84;20974;-85
2022/08/24 08:38:03;;;;;;;38.70;24.00;;;;;;;19.76;100.00;96885.21;1707269;83;21053;-86
2022/08/24 08:40:59;;;;;;;42.75;24.10;;;;;;;19.83;100.00;96886.92;1705090;82;20950;-85
2022/08/24 08:43:51;;;;;;;45.60;25.02;;;;;;;19.87;100.00;96886.78;1694315;84;21058;-84
2022/08/24 08:46:55;;;;;;;43.52;25.30;;;;;;;19.96;100.00;96884.88;1702772;84;21369;-86
2022/08/24 08:49:35;;;;;;;41.48;25.00;;;;;;;20.08;100.00;96885.70;1696865;82;21353;-85
2022/08/24 08:52:46;;;;;;;40.92;24.82;;;;;;;20.19;100.00;96881.46;1689179;83;22151;-85
2022/08/24 08:55:49;;;;;;;41.13;24.10;;;;;;;20.27;100.00;96880.30;1692001;82;20986;-85
2022/08/24 08:58:49;;;;;;;40.23;23.73;;;;;;;20.33;100.00;96880.16;1689808;82;20994;-84
2022/08/24 09:01:32;;;;;;;33.60;19.05;;;;;;;20.39;100.00;96885.86;1695893;83;20989;-83
2022/08/24 09:04:37;;;;;;;38.33;24.37;;;;;;;20.41;100.00;96880.86;1678645;83;21015;-83
2022/08/24 09:07:39;;;;;;;40.40;23.38;;;;;;;20.41;100.00;96887.45;1698189;83;21100;-84
2022/08/24 09:10:19;;;;;;;38.20;23.92;;;;;;;20.47;100.00;96893.95;1710860;82;21047;-84
2022/08/24 09:13:21;;;;;;;36.10;23.22;;;;;;;20.51;100.00;96892.48;1708210;82;21393;-84
2022/08/24 09:16:29;;;;;;;31.33;22.62;;;;;;;20.44;100.00;96894.94;1755012;80;21048;-85
2022/08/24 09:19:21;;;;;;;32.75;23.18;;;;;;;20.37;100.00;96889.25;1680718;82;21046;-86
2022/08/24 09:22:18;;;;;;;32.83;22.85;;;;;;;20.35;100.00;96895.27;1678792;83;21002;-85
2022/08/24 09:25:08;;;;;;;36.03;23.38;;;;;;;20.28;100.00;96891.13;1703890;82;21061;-86
2022/08/24 09:28:00;;;;;;;35.30;22.60;;;;;;;20.24;100.00;96889.48;1674393;83;21413;-85
2022/08/24 09:30:36;;;;;;;32.53;21.27;;;;;;;20.22;100.00;96890.23;1729752;80;21166;-86
2022/08/24 09:33:31;;;;;;;34.90;23.32;;;;;;;20.23;100.00;96889.20;1735527;80;20955;-86
2022/08/24 09:36:21;;;;;;;37.88;24.45;;;;;;;20.25;100.00;96886.33;1737757;81;21019;-84
2022/08/24 09:39:15;;;;;;;33.30;22.02;;;;;;;20.26;100.00;96889.25;1742600;80;21038;-84
2022/08/24 09:42:03;;;;;;;38.23;24.32;;;;;;;20.29;100.00;96890.90;1690322;83;21044;-83
2022/08/24 09:45:12;;;;;;;31.35;22.20;;;;;;;20.25;100.00;96887.12;1695642;83;21003;-83
2022/08/24 09:48:16;;;;;;;36.13;22.02;;;;;;;20.26;100.00;96892.69;1707830;83;21043;-83
2022/08/24 09:51:00;;;;;;;38.73;23.92;;;;;;;20.29;100.00;96891.42;1739913;80;21035;-84
2022/08/24 09:54:02;;;;;;;36.73;23.40;;;;;;;20.31;100.00;96885.39;1670530;83;21066;-82
2022/08/24 09:57:05;;;;;;;37.48;24.80;;;;;;;20.35;100.00;96886.04;1702542;82;20962;-84
2022/08/24 09:59:58;;;;;;;33.73;21.87;;;;;;;20.36;100.00;96885.00;1692097;85;20993;-83
2022/08/24 10:02:41;;;;;;;32.40;23.20;;;;;;;20.37;100.00;96882.65;1719918;82;20976;-84
2022/08/24 10:05:32;;;;;;;35.83;24.10;;;;;;;20.39;100.00;96878.45;1714359;83;20932;-84
2022/08/24 10:08:10;;;;;;;35.10;24.20;;;;;;;20.40;100.00;96881.38;1689924;83;21072;-83
2022/08/24 10:10:59;;;;;;;31.00;21.55;;;;;;;20.38;100.00;96880.81;1715547;82;20977;-84
2022/08/24 10:13:31;;;;;;;36.00;24.82;;;;;;;20.34;100.00;96882.31;1718945;82;21043;-84
2022/08/24 10:16:23;;;;;;;40.95;25.12;;;;;;;20.33;100.00;96880.16;1693450;83;21046;-83
2022/08/24 10:19:09;;;;;;;35.48;24.55;;;;;;;20.31;100.00;96878.27;1707328;81;21092;-83
2022/08/24 10:21:50;;;;;;;32.75;22.67;;;;;;;20.23;100.00;96879.95;1734014;81;20995;-83
2022/08/24 10:24:42;;;;;;;38.90;23.83;;;;;;;20.23;100.00;96878.64;1723645;81;21033;-83
2022/08/24 10:28:04;;;;;;;34.75;22.35;;;;;;;20.27;100.00;96877.14;1706656;83;21406;-83
2022/08/24 10:31:03;;;;;;;33.33;22.40;;;;;;;20.35;100.00;96882.59;1725010;82;21327;-83
2022/08/24 10:33:38;;;;;;;31.68;21.05;;;;;;;20.46;100.00;96881.80;1706358;82;21033;-83
2022/08/24 10:36:21;;;;;;;33.88;22.58;;;;;;;20.61;100.00;96875.52;1705502;83;21425;-83
2022/08/24 10:41:48;;;;;;;38.13;22.45;;;;;;;20.75;100.00;96880.54;1699183;82;20970;-83
2022/08/24 10:44:42;;;;;;;38.63;21.95;;;;;;;20.73;100.00;96871.53;1707936;81;21208;-84
2022/08/24 10:47:22;;;;;;;36.70;23.27;;;;;;;20.83;100.00;96882.83;1727866;81;20980;-84
2022/08/24 10:50:13;;;;;;;33.33;22.25;;;;;;;20.93;100.00;96877.72;1706532;82;21062;-84
2022/08/24 10:52:59;;;;;;;31.53;23.13;;;;;;;21.06;100.00;96882.73;1720460;81;20990;-84
2022/08/24 10:55:29;;;;;;;36.10;24.23;;;;;;;21.20;100.00;96872.69;1685657;83;20987;-84
2022/08/24 10:58:24;;;;;;;37.85;24.87;;;;;;;21.39;100.00;96875.44;1699356;83;21063;-84
2022/08/24 11:00:51;;;;;;;35.63;22.45;;;;;;;21.56;100.00;96874.13;1701886;83;21445;-84
2022/08/24 11:03:22;;;;;;;38.15;23.02;;;;;;;21.65;99.58;96878.52;1676957;83;21400;-83
2022/08/24 11:05:50;;;;;;;37.73;23.52;;;;;;;21.75;100.00;96870.73;1681852;83;21028;-83
2022/08/24 11:08:29;;;;;;;35.63;22.05;;;;;;;21.87;98.15;96874.11;1705813;83;21381;-84
2022/08/24 11:11:12;;;;;;;36.95;22.52;;;;;;;21.88;97.57;96876.51;1714652;82;21014;-83
2022/08/24 11:13:51;;;;;;;34.00;22.37;;;;;;;21.94;98.28;96876.05;1719226;82;20972;-86
2022/08/24 11:16:31;;;;;;;38.20;24.43;;;;;;;22.03;97.90;96877.27;1700519;82;21076;-86
2022/08/24 11:19:00;;;;;;;34.38;22.30;;;;;;;22.12;97.86;96880.31;1702580;82;21406;-86
2022/08/24 11:21:40;;;;;;;37.38;23.27;;;;;;;22.21;99.25;96876.23;1743736;81;21451;-85
2022/08/24 11:24:15;;;;;;;37.50;23.77;;;;;;;22.27;100.00;96881.06;1715844;82;21057;-85
2022/08/24 11:27:16;;;;;;;37.50;24.02;;;;;;;22.30;98.66;96880.08;1731755;81;21424;-86
2022/08/24 11:29:53;;;;;;;38.73;21.55;;;;;;;22.28;97.93;96872.88;1718109;82;20924;-84
2022/08/24 11:32:51;;;;;;;31.42;21.57;;;;;;;22.30;98.54;96871.33;1711228;81;21364;-84
2022/08/24 11:35:34;;;;;;;33.60;21.97;;;;;;;22.32;97.86;96874.01;1745912;81;20982;-84
2022/08/24 11:38:18;;;;;;;36.68;21.75;;;;;;;22.32;96.79;96870.56;1732618;81;21045;-84
2022/08/24 11:41:04;;;;;;;40.55;21.52;;;;;;;22.38;98.13;96869.05;1744715;81;21012;-84